Time;durP1;ratioP1;P1;durP2;ratioP2;P2;SDS_P1;SDS_P2;PMS_P1;PMS_P2;Temp;Humidity;BMP_temperature;BMP_pressure;BME280_temperature;BME280_humidity;BME280_pressure;Samples;Min_cycle;Max_cycle;Signal;HPM_P1;HPM_P2
2022/02/15 00:01:44;;;;;;;9.68;1.50;;;6.20;99.90;;;;;;5037190;28;20044;-71
2022/02/15 00:04:09;;;;;;;10.77;1.73;;;6.20;99.90;;;;;;5038056;28;20116;-71
2022/02/15 00:06:35;;;;;;;7.35;1.63;;;6.20;99.90;;;;;;5037338;28;20076;-70
2022/02/15 00:09:01;;;;;;;6.32;1.60;;;6.30;99.90;;;;;;5057723;28;20120;-70
2022/02/15 00:11:27;;;;;;;5.25;1.33;;;6.20;99.90;;;;;;5039400;28;20513;-70
2022/02/15 00:13:53;;;;;;;6.45;1.40;;;6.30;99.90;;;;;;5041861;28;20109;-70
2022/02/15 00:16:19;;;;;;;7.55;1.10;;;6.20;99.90;;;;;;5028312;28;20631;-70
2022/02/15 00:18:45;;;;;;;6.30;1.20;;;6.20;99.90;;;;;;5042198;28;20110;-70
2022/02/15 00:21:11;;;;;;;6.35;1.35;;;6.30;99.90;;;;;;5041904;28;20051;-70
2022/02/15 00:23:36;;;;;;;7.47;1.02;;;6.20;99.90;;;;;;5041297;28;20354;-70
2022/02/15 00:26:02;;;;;;;4.80;1.25;;;6.30;99.90;;;;;;5042835;28;20436;-71
2022/02/15 00:28:28;;;;;;;5.57;1.05;;;6.30;99.90;;;;;;5040384;28;20041;-70
2022/02/15 00:30:54;;;;;;;9.48;1.40;;;6.20;99.90;;;;;;5029964;28;20476;-71
2022/02/15 00:33:20;;;;;;;12.48;1.50;;;6.20;99.90;;;;;;5039597;28;20110;-70
2022/02/15 00:35:45;;;;;;;7.03;1.10;;;6.20;99.90;;;;;;5026527;28;20041;-70
2022/02/15 00:38:11;;;;;;;7.68;1.38;;;6.30;99.90;;;;;;5043682;28;20481;-70
2022/02/15 00:40:38;;;;;;;4.75;1.25;;;6.30;99.90;;;;;;5040583;28;20501;-70
2022/02/15 00:43:04;;;;;;;4.78;0.80;;;6.30;99.90;;;;;;5039336;28;20486;-69
2022/02/15 00:45:30;;;;;;;6.10;1.00;;;6.30;99.90;;;;;;5042784;28;20367;-69
2022/02/15 00:47:56;;;;;;;5.75;1.33;;;6.30;99.90;;;;;;5042516;28;20049;-70
2022/02/15 00:50:22;;;;;;;7.10;0.90;;;6.30;99.90;;;;;;5041953;28;20048;-70
2022/02/15 00:52:48;;;;;;;7.45;1.23;;;6.30;99.90;;;;;;5042689;28;20041;-70
2022/02/15 00:55:14;;;;;;;9.88;1.38;;;6.40;99.90;;;;;;5042854;28;20073;-70
2022/02/15 00:57:41;;;;;;;13.75;1.45;;;6.30;99.90;;;;;;5039059;28;20126;-70
2022/02/15 01:00:08;;;;;;;7.18;1.30;;;6.30;99.90;;;;;;5040183;28;20054;-70
2022/02/15 01:02:34;;;;;;;9.07;1.60;;;6.30;99.90;;;;;;5043144;28;20032;-71
2022/02/15 01:05:00;;;;;;;8.35;1.70;;;6.30;99.90;;;;;;5040167;28;20569;-71
2022/02/15 01:07:25;;;;;;;9.10;1.60;;;6.30;99.90;;;;;;5027215;28;20052;-70
2022/02/15 01:09:51;;;;;;;6.13;1.55;;;6.40;99.90;;;;;;5040891;28;20063;-70
2022/02/15 01:12:17;;;;;;;8.93;1.85;;;6.30;99.90;;;;;;5024329;28;20057;-70
2022/02/15 01:14:43;;;;;;;9.18;1.58;;;6.30;99.90;;;;;;5000637;28;20525;-70
2022/02/15 01:17:09;;;;;;;14.02;2.38;;;6.40;99.90;;;;;;5000452;28;20034;-70
2022/02/15 01:19:35;;;;;;;6.43;1.52;;;6.40;99.90;;;;;;5000130;28;20038;-70
2022/02/15 01:22:02;;;;;;;8.45;2.00;;;6.40;99.90;;;;;;4999639;28;20437;-70
2022/02/15 01:24:27;;;;;;;6.80;1.58;;;6.40;99.90;;;;;;4988878;28;20058;-70
2022/02/15 01:26:53;;;;;;;10.35;2.13;;;6.40;99.90;;;;;;5002757;28;20113;-70
2022/02/15 01:29:19;;;;;;;10.20;2.15;;;6.40;99.90;;;;;;5013140;28;20206;-70
2022/02/15 01:31:45;;;;;;;9.73;2.17;;;6.40;99.90;;;;;;5002561;28;20050;-70
2022/02/15 01:34:11;;;;;;;10.82;2.08;;;6.40;99.90;;;;;;5002765;28;20056;-70
2022/02/15 01:36:38;;;;;;;10.45;1.90;;;6.40;99.90;;;;;;5000455;28;20080;-70
2022/02/15 01:39:04;;;;;;;8.23;2.08;;;6.40;99.90;;;;;;4986825;28;20041;-70
2022/02/15 01:41:30;;;;;;;11.05;2.25;;;6.40;99.90;;;;;;5002585;28;20116;-70
2022/02/15 01:43:55;;;;;;;11.07;2.40;;;6.40;99.90;;;;;;5003142;28;20129;-70
2022/02/15 01:46:22;;;;;;;10.48;2.22;;;6.50;99.90;;;;;;4999945;28;20511;-70
2022/02/15 01:48:47;;;;;;;8.23;2.25;;;6.40;99.90;;;;;;5003476;28;20030;-70
2022/02/15 01:51:14;;;;;;;12.10;2.53;;;6.40;99.90;;;;;;4985370;28;20132;-70
2022/02/15 01:53:41;;;;;;;7.32;1.80;;;6.40;99.90;;;;;;5002490;28;20046;-70
2022/02/15 01:56:09;;;;;;;13.05;2.22;;;6.40;99.90;;;;;;5002991;28;20033;-70
2022/02/15 01:58:35;;;;;;;5.65;2.47;;;6.40;99.90;;;;;;5000142;28;20426;-70
2022/02/15 02:01:00;;;;;;;6.85;2.13;;;6.40;99.90;;;;;;4998879;28;20180;-70
2022/02/15 02:03:27;;;;;;;8.93;2.60;;;6.40;99.90;;;;;;4985622;28;20073;-70
2022/02/15 02:05:52;;;;;;;11.82;2.65;;;6.40;99.90;;;;;;4999731;28;20046;-70
2022/02/15 02:08:32;;;;;;;7.57;2.05;;;6.40;99.90;;;;;;5003630;28;20045;-70
2022/02/15 02:11:00;;;;;;;11.25;2.10;;;6.40;99.90;;;;;;5001198;28;20168;-70
2022/02/15 02:13:27;;;;;;;11.30;2.50;;;6.30;99.90;;;;;;5018668;28;20057;-70
2022/02/15 02:15:52;;;;;;;7.60;1.98;;;6.30;99.90;;;;;;5035899;28;20036;-70
2022/02/15 02:18:18;;;;;;;8.85;2.30;;;6.40;99.90;;;;;;5027569;28;20053;-70
2022/02/15 02:20:45;;;;;;;11.75;2.92;;;6.40;99.90;;;;;;5039730;28;20086;-70
2022/02/15 02:23:16;;;;;;;12.40;2.53;;;6.40;99.90;;;;;;5040441;28;20037;-70
2022/02/15 02:25:43;;;;;;;7.88;2.60;;;6.40;99.90;;;;;;5041768;28;20033;-70
2022/02/15 02:28:09;;;;;;;6.65;1.90;;;6.50;99.90;;;;;;5037856;28;20033;-70
2022/02/15 02:30:35;;;;;;;13.18;2.83;;;6.40;99.90;;;;;;5037230;28;20315;-70
2022/02/15 02:33:02;;;;;;;8.30;2.25;;;6.40;99.90;;;;;;5026267;28;20063;-70
2022/02/15 02:35:27;;;;;;;7.15;2.10;;;6.50;99.90;;;;;;5025634;28;20049;-70
2022/02/15 02:37:53;;;;;;;10.73;2.33;;;6.50;99.90;;;;;;5040107;28;20094;-70
2022/02/15 02:40:19;;;;;;;9.10;2.22;;;6.50;99.90;;;;;;5026250;28;20037;-70
2022/02/15 02:42:45;;;;;;;10.38;2.47;;;6.50;99.90;;;;;;5039134;28;20355;-70
2022/02/15 02:45:13;;;;;;;9.98;2.67;;;6.50;99.90;;;;;;5025214;28;20650;-70
2022/02/15 02:47:43;;;;;;;13.82;2.28;;;6.50;99.90;;;;;;5039199;28;20398;-70
2022/02/15 02:50:08;;;;;;;8.43;2.22;;;6.50;99.90;;;;;;5041544;28;20138;-70
2022/02/15 02:52:34;;;;;;;9.90;2.47;;;6.50;99.90;;;;;;5039395;28;20033;-70
2022/02/15 02:55:00;;;;;;;9.98;2.42;;;6.50;99.90;;;;;;5041257;28;20028;-70
2022/02/15 02:57:26;;;;;;;11.70;2.38;;;6.50;99.90;;;;;;5040433;28;20174;-70
2022/02/15 02:59:52;;;;;;;6.82;1.75;;;6.60;99.90;;;;;;5039689;28;20441;-70
2022/02/15 03:02:17;;;;;;;9.07;2.45;;;6.50;99.90;;;;;;5038570;28;20501;-70
2022/02/15 03:04:44;;;;;;;10.43;2.10;;;6.50;99.90;;;;;;5039664;28;20553;-70
2022/02/15 03:07:10;;;;;;;7.75;2.15;;;6.60;99.90;;;;;;5023419;28;20045;-70
2022/02/15 03:09:36;;;;;;;11.13;2.60;;;6.60;99.90;;;;;;5039860;28;20059;-70
2022/02/15 03:12:03;;;;;;;10.88;2.10;;;6.60;99.90;;;;;;5040029;28;20052;-70
2022/02/15 03:14:29;;;;;;;7.85;2.35;;;6.60;99.90;;;;;;5038450;28;20080;-70
2022/02/15 03:16:54;;;;;;;12.88;2.47;;;6.60;99.90;;;;;;5036972;28;20124;-70
2022/02/15 03:19:20;;;;;;;12.95;2.60;;;6.60;99.90;;;;;;5038766;28;20029;-70
2022/02/15 03:21:46;;;;;;;9.77;2.40;;;6.60;99.90;;;;;;5023369;28;20041;-70
2022/02/15 03:24:11;;;;;;;10.38;2.80;;;6.60;99.90;;;;;;5039485;28;20037;-70
2022/02/15 03:26:37;;;;;;;12.25;2.88;;;6.60;99.90;;;;;;5039456;28;20041;-70
2022/02/15 03:29:04;;;;;;;8.75;2.92;;;6.60;99.90;;;;;;5037639;28;20089;-70
2022/02/15 03:31:29;;;;;;;12.43;2.80;;;6.50;99.90;;;;;;5036848;28;20099;-70
2022/02/15 03:33:55;;;;;;;8.30;2.50;;;6.50;99.90;;;;;;5042986;28;20080;-70
2022/02/15 03:36:21;;;;;;;13.15;3.15;;;6.50;99.90;;;;;;5036744;28;20080;-70
2022/02/15 03:38:47;;;;;;;12.15;3.15;;;6.50;99.90;;;;;;5037851;28;20036;-70
2022/02/15 03:43:56;;;;;;;9.37;3.23;;;6.50;99.90;;;;;;5039531;28;20495;-70
2022/02/15 03:46:23;;;;;;;12.68;3.25;;;6.50;99.90;;;;;;5036044;28;20473;-70
2022/02/15 03:48:50;;;;;;;9.93;3.70;;;6.40;99.90;;;;;;5038202;28;20033;-70
2022/02/15 03:51:16;;;;;;;13.13;4.18;;;6.40;99.90;;;;;;5024248;28;20505;-69
2022/02/15 03:53:42;;;;;;;13.18;4.63;;;6.40;99.90;;;;;;5035653;28;20084;-70
2022/02/15 03:56:09;;;;;;;8.07;4.15;;;6.40;99.90;;;;;;5038831;28;20175;-70
2022/02/15 03:58:35;;;;;;;14.32;4.75;;;6.40;99.90;;;;;;5057834;28;20044;-70
2022/02/15 04:01:01;;;;;;;16.88;4.82;;;6.40;99.90;;;;;;5035261;28;20048;-69
2022/02/15 04:03:27;;;;;;;10.50;4.07;;;6.40;99.90;;;;;;5039547;28;20033;-70
2022/02/15 04:05:54;;;;;;;13.25;4.50;;;6.30;99.90;;;;;;5041691;28;20092;-70
2022/02/15 04:08:22;;;;;;;14.07;4.50;;;6.30;99.90;;;;;;5038184;28;20045;-70
2022/02/15 04:10:48;;;;;;;10.63;3.88;;;6.30;99.90;;;;;;5036769;28;20040;-70
2022/02/15 04:13:14;;;;;;;14.20;4.50;;;6.30;99.90;;;;;;5041892;28;20057;-70
2022/02/15 04:15:40;;;;;;;13.25;4.05;;;6.30;99.90;;;;;;5037173;28;20110;-70
2022/02/15 04:18:05;;;;;;;10.23;4.30;;;6.30;99.90;;;;;;5037940;28;20453;-70
2022/02/15 04:20:31;;;;;;;11.30;5.30;;;6.30;99.90;;;;;;5036430;28;20053;-70
2022/02/15 04:22:57;;;;;;;14.68;5.10;;;6.30;99.90;;;;;;5054649;28;20127;-70
2022/02/15 04:25:23;;;;;;;10.50;5.10;;;6.30;99.90;;;;;;5037209;28;20037;-70
2022/02/15 04:27:48;;;;;;;15.23;5.50;;;6.30;99.90;;;;;;5041436;28;20042;-70
2022/02/15 04:30:14;;;;;;;11.13;5.38;;;6.30;99.90;;;;;;5035752;28;20033;-70
2022/02/15 04:32:40;;;;;;;11.88;5.65;;;6.30;99.90;;;;;;5034632;28;20521;-70
2022/02/15 04:35:06;;;;;;;17.98;6.07;;;6.30;99.90;;;;;;5038202;28;20049;-70
2022/02/15 04:37:32;;;;;;;16.73;5.75;;;6.30;99.90;;;;;;5038779;28;20083;-70
2022/02/15 04:39:57;;;;;;;16.63;6.90;;;6.40;99.90;;;;;;5035259;28;20073;-70
2022/02/15 04:42:24;;;;;;;17.15;6.07;;;6.30;99.90;;;;;;5039214;28;20494;-70
2022/02/15 04:44:49;;;;;;;12.05;6.68;;;6.30;99.90;;;;;;5039244;28;20069;-70
2022/02/15 04:47:15;;;;;;;14.15;6.38;;;6.30;99.90;;;;;;5035327;28;20118;-70
2022/02/15 04:49:41;;;;;;;18.58;6.63;;;6.30;99.90;;;;;;5039014;28;20053;-69
2022/02/15 04:52:07;;;;;;;12.63;5.95;;;6.30;99.90;;;;;;5036881;28;20045;-69
2022/02/15 04:54:33;;;;;;;14.10;6.72;;;6.30;99.90;;;;;;5034503;28;20073;-70
2022/02/15 04:56:59;;;;;;;11.95;6.03;;;6.30;99.90;;;;;;5039971;28;20059;-70
2022/02/15 04:59:24;;;;;;;15.18;6.38;;;6.30;99.90;;;;;;5025595;28;20058;-70
2022/02/15 05:01:50;;;;;;;16.58;6.18;;;6.30;99.90;;;;;;5038696;28;20052;-70
2022/02/15 05:07:01;;;;;;;13.52;5.80;;;6.20;99.90;;;;;;5042626;28;20034;-70
2022/02/15 05:09:29;;;;;;;11.85;5.85;;;6.20;99.90;;;;;;5040556;28;20520;-70
2022/02/15 05:11:56;;;;;;;13.82;6.25;;;6.20;99.90;;;;;;5043202;28;20192;-70
2022/02/15 05:14:23;;;;;;;17.58;7.30;;;6.20;99.90;;;;;;5037749;28;20135;-70
2022/02/15 05:16:49;;;;;;;12.07;5.90;;;6.20;99.90;;;;;;5037488;28;20140;-70
2022/02/15 05:19:15;;;;;;;14.95;7.32;;;6.20;99.90;;;;;;5043388;28;20135;-70
2022/02/15 05:21:40;;;;;;;16.90;7.10;;;6.20;99.90;;;;;;5040566;28;20045;-70
2022/02/15 05:24:07;;;;;;;11.50;6.35;;;6.20;99.90;;;;;;5041282;28;20066;-70
2022/02/15 05:26:34;;;;;;;16.40;6.97;;;6.10;99.90;;;;;;5043050;28;20052;-70
2022/02/15 05:29:00;;;;;;;16.42;7.55;;;6.10;99.90;;;;;;5042424;28;20063;-70
2022/02/15 05:31:26;;;;;;;13.27;6.97;;;6.10;99.90;;;;;;5046144;28;20041;-70
2022/02/15 05:33:52;;;;;;;16.17;7.28;;;6.10;99.90;;;;;;5046958;28;20047;-70
2022/02/15 05:36:18;;;;;;;14.68;6.55;;;6.10;99.90;;;;;;5043438;28;20443;-70
2022/02/15 05:38:43;;;;;;;12.98;7.30;;;6.10;99.90;;;;;;5040977;28;20152;-70
2022/02/15 05:41:10;;;;;;;17.92;7.72;;;6.10;99.90;;;;;;5047480;28;20044;-70
2022/02/15 05:43:35;;;;;;;14.82;7.22;;;6.10;99.90;;;;;;5036978;28;20128;-70
2022/02/15 05:46:01;;;;;;;14.20;7.78;;;6.10;99.90;;;;;;5044380;28;20505;-69
2022/02/15 05:48:27;;;;;;;19.00;8.90;;;6.10;99.90;;;;;;5023459;28;20135;-69
2022/02/15 05:50:53;;;;;;;16.05;8.38;;;6.10;99.90;;;;;;5036984;28;20152;-70
2022/02/15 05:53:24;;;;;;;14.25;7.75;;;6.10;99.90;;;;;;5038030;28;20506;-70
2022/02/15 05:55:52;;;;;;;18.38;9.07;;;6.10;99.90;;;;;;5044012;28;20048;-70
2022/02/15 05:58:22;;;;;;;18.17;8.82;;;6.10;99.90;;;;;;5042229;28;20043;-70
2022/02/15 06:00:49;;;;;;;14.98;8.40;;;6.10;99.90;;;;;;5043501;28;20106;-70
2022/02/15 06:05:58;;;;;;;13.57;8.55;;;6.00;99.90;;;;;;5042106;28;20436;-70
2022/02/15 06:08:25;;;;;;;18.25;9.35;;;6.10;99.90;;;;;;5041244;28;20125;-70
2022/02/15 06:10:51;;;;;;;14.68;8.90;;;6.00;99.90;;;;;;5043800;28;20632;-70
2022/02/15 06:13:18;;;;;;;23.70;9.77;;;6.00;99.90;;;;;;5040976;28;20580;-70
2022/02/15 06:15:45;;;;;;;22.83;10.27;;;6.00;99.90;;;;;;5042580;28;20045;-70
2022/02/15 06:18:11;;;;;;;18.95;10.07;;;5.90;99.90;;;;;;5044786;28;20545;-70
2022/02/15 06:20:37;;;;;;;15.50;10.43;;;6.00;99.90;;;;;;5041683;28;20183;-70
2022/02/15 06:23:03;;;;;;;17.63;10.73;;;6.00;99.90;;;;;;5042921;28;20036;-69
2022/02/15 06:25:29;;;;;;;17.45;10.60;;;6.00;99.90;;;;;;5041696;28;20033;-70
2022/02/15 06:27:54;;;;;;;17.33;10.32;;;6.00;99.90;;;;;;5043998;28;20147;-69
2022/02/15 06:30:20;;;;;;;20.40;11.43;;;6.00;99.90;;;;;;5039510;28;20082;-69
2022/02/15 06:32:46;;;;;;;21.80;12.68;;;6.00;99.90;;;;;;5039518;28;20041;-70
2022/02/15 06:35:12;;;;;;;24.15;12.35;;;6.00;99.90;;;;;;5038128;28;20071;-69
2022/02/15 06:37:42;;;;;;;20.98;12.02;;;6.00;99.90;;;;;;5044124;28;20047;-69
2022/02/15 06:40:08;;;;;;;23.33;13.35;;;6.00;99.90;;;;;;5045652;28;20037;-70
2022/02/15 06:42:35;;;;;;;22.38;13.70;;;6.00;99.90;;;;;;5044592;28;20095;-69
2022/02/15 06:45:01;;;;;;;22.02;13.80;;;6.00;99.90;;;;;;5040665;28;20076;-69
2022/02/15 06:47:27;;;;;;;23.67;14.88;;;6.00;99.90;;;;;;5040828;28;20094;-69
2022/02/15 06:49:53;;;;;;;20.88;14.43;;;6.00;99.90;;;;;;5042239;28;20068;-69
2022/02/15 06:52:18;;;;;;;23.98;15.27;;;6.00;99.90;;;;;;5040572;28;20155;-69
2022/02/15 06:54:44;;;;;;;24.88;15.57;;;6.10;99.90;;;;;;5046607;28;20366;-69
2022/02/15 06:57:10;;;;;;;27.10;16.88;;;6.10;99.90;;;;;;5042202;28;20095;-69
2022/02/15 06:59:35;;;;;;;27.25;17.23;;;6.10;99.90;;;;;;5037710;28;20578;-70
2022/02/15 07:02:01;;;;;;;26.00;16.75;;;6.10;99.90;;;;;;5039982;28;20036;-70
2022/02/15 07:04:27;;;;;;;26.45;19.60;;;6.10;99.90;;;;;;5027567;28;20037;-70
2022/02/15 07:06:53;;;;;;;31.08;18.45;;;6.10;99.90;;;;;;5043961;28;20527;-70
2022/02/15 07:09:18;;;;;;;28.42;19.33;;;6.20;99.90;;;;;;5025443;28;20053;-70
2022/02/15 07:11:44;;;;;;;28.17;20.17;;;6.10;99.90;;;;;;5039115;28;20033;-70
2022/02/15 07:14:10;;;;;;;26.40;18.88;;;6.10;99.90;;;;;;5041013;28;20132;-70
2022/02/15 07:16:36;;;;;;;31.00;20.30;;;6.20;99.90;;;;;;5040014;28;20123;-70
2022/02/15 07:19:03;;;;;;;27.95;20.00;;;6.20;99.90;;;;;;5038545;28;20188;-70
2022/02/15 07:21:30;;;;;;;27.02;19.60;;;6.20;99.90;;;;;;5032434;28;20039;-70
2022/02/15 07:23:57;;;;;;;29.92;20.05;;;6.20;99.90;;;;;;5042474;28;20044;-70
2022/02/15 07:26:23;;;;;;;30.08;20.33;;;6.20;99.90;;;;;;5040010;28;20369;-70
2022/02/15 07:28:49;;;;;;;26.10;18.52;;;6.20;99.90;;;;;;5042068;28;20119;-70
2022/02/15 07:31:14;;;;;;;27.05;18.90;;;6.20;99.90;;;;;;5035055;28;20417;-70
2022/02/15 07:33:41;;;;;;;27.77;18.85;;;6.20;99.90;;;;;;5040216;28;20603;-70
2022/02/15 07:36:07;;;;;;;29.15;19.63;;;6.20;99.90;;;;;;5037583;28;20044;-70
2022/02/15 07:38:32;;;;;;;28.77;18.58;;;6.20;99.90;;;;;;5038796;28;20048;-70
2022/02/15 07:40:58;;;;;;;30.08;19.63;;;6.20;99.90;;;;;;5040688;28;20056;-70
2022/02/15 07:43:25;;;;;;;25.30;19.38;;;6.30;99.90;;;;;;5036976;28;20044;-70
2022/02/15 07:45:52;;;;;;;26.15;18.15;;;6.30;99.90;;;;;;5038938;28;20045;-70
2022/02/15 07:48:17;;;;;;;26.20;17.67;;;6.30;99.90;;;;;;5038642;28;20030;-70
2022/02/15 07:50:43;;;;;;;26.73;17.38;;;6.30;99.90;;;;;;5016270;28;20155;-70
2022/02/15 07:53:09;;;;;;;23.80;17.83;;;6.40;99.90;;;;;;5041815;28;20527;-70
2022/02/15 07:55:35;;;;;;;24.85;17.05;;;6.40;99.90;;;;;;5026902;28;20091;-70
2022/02/15 07:58:00;;;;;;;30.63;18.30;;;6.40;99.90;;;;;;5042248;28;20628;-70
2022/02/15 08:00:27;;;;;;;26.98;18.60;;;6.40;99.90;;;;;;5039623;28;20114;-70
2022/02/15 08:02:54;;;;;;;27.95;17.90;;;6.40;99.90;;;;;;5043995;28;20489;-70
2022/02/15 08:05:21;;;;;;;34.40;18.38;;;6.40;99.90;;;;;;5040690;28;20184;-70
2022/02/15 08:07:47;;;;;;;27.17;17.33;;;6.50;99.90;;;;;;5024977;28;20212;-70
2022/02/15 08:10:13;;;;;;;28.83;17.67;;;6.50;99.90;;;;;;5041598;28;20051;-70
2022/02/15 08:12:43;;;;;;;25.55;17.15;;;6.50;99.90;;;;;;5041680;28;20532;-70
2022/02/15 08:15:09;;;;;;;26.38;17.38;;;6.50;99.90;;;;;;5037501;28;20112;-70
2022/02/15 08:17:35;;;;;;;30.17;17.10;;;6.60;99.90;;;;;;5042457;28;20485;-69
2022/02/15 08:20:01;;;;;;;23.92;16.50;;;6.60;99.90;;;;;;5041382;28;20049;-69
2022/02/15 08:22:26;;;;;;;25.95;16.52;;;6.70;99.90;;;;;;5039910;28;20037;-69
2022/02/15 08:24:52;;;;;;;28.08;17.80;;;6.70;99.90;;;;;;5025899;28;20434;-69
2022/02/15 08:27:18;;;;;;;24.90;16.70;;;6.70;99.90;;;;;;5043367;28;20049;-70
2022/02/15 08:29:44;;;;;;;27.15;17.02;;;6.60;99.90;;;;;;5042506;28;20266;-70
2022/02/15 08:32:11;;;;;;;25.08;16.13;;;6.80;99.90;;;;;;5039499;28;20052;-69
2022/02/15 08:34:37;;;;;;;27.85;15.77;;;6.80;99.90;;;;;;5041470;28;20068;-69
2022/02/15 08:37:03;;;;;;;22.63;14.98;;;6.90;99.90;;;;;;5047756;28;20400;-69
2022/02/15 08:39:30;;;;;;;29.05;16.90;;;6.90;99.90;;;;;;5043096;28;20056;-69
2022/02/15 08:41:55;;;;;;;23.33;15.05;;;6.90;99.90;;;;;;5045091;28;20120;-69
2022/02/15 08:44:21;;;;;;;27.25;15.40;;;7.00;99.90;;;;;;5047071;28;20136;-69
2022/02/15 08:46:47;;;;;;;23.23;15.15;;;7.00;99.90;;;;;;5043708;28;20114;-70
2022/02/15 08:49:12;;;;;;;23.40;14.95;;;7.10;99.90;;;;;;5046240;28;20591;-69
2022/02/15 08:51:38;;;;;;;24.30;14.00;;;7.10;99.90;;;;;;5045109;28;20052;-70
2022/02/15 08:54:04;;;;;;;30.13;14.15;;;7.20;99.90;;;;;;5046168;28;20111;-69
2022/02/15 08:56:30;;;;;;;25.13;13.93;;;7.30;99.90;;;;;;5040598;28;20048;-69
2022/02/15 08:58:57;;;;;;;25.17;13.32;;;7.50;99.90;;;;;;5045968;28;20044;-69
2022/02/15 09:01:22;;;;;;;23.77;12.68;;;7.50;99.90;;;;;;5042523;28;20049;-69
2022/02/15 09:03:48;;;;;;;23.00;12.85;;;7.60;99.90;;;;;;5043034;28;20048;-69
2022/02/15 09:06:14;;;;;;;19.98;12.75;;;7.70;99.90;;;;;;5042142;28;20037;-70
2022/02/15 09:08:40;;;;;;;19.27;11.98;;;7.70;99.90;;;;;;5041834;28;20183;-69
2022/02/15 09:11:06;;;;;;;24.55;11.38;;;7.70;99.90;;;;;;5045539;28;20068;-69
2022/02/15 09:13:32;;;;;;;23.60;12.27;;;7.80;99.90;;;;;;5040262;28;20041;-70
2022/02/15 09:15:58;;;;;;;16.75;10.02;;;7.80;99.90;;;;;;5044316;28;20037;-70
2022/02/15 09:18:24;;;;;;;23.08;9.82;;;7.80;99.90;;;;;;5040863;28;20055;-70
2022/02/15 09:20:50;;;;;;;15.70;8.98;;;7.90;99.90;;;;;;5043861;28;20084;-69
2022/02/15 09:23:15;;;;;;;18.08;8.90;;;7.90;99.90;;;;;;5042751;28;20107;-69
2022/02/15 09:25:41;;;;;;;18.98;8.50;;;8.00;99.90;;;;;;5041146;28;20045;-70
2022/02/15 09:28:07;;;;;;;20.17;9.15;;;8.00;99.90;;;;;;5039156;28;20457;-70
2022/02/15 09:30:33;;;;;;;17.98;9.10;;;8.10;99.90;;;;;;5029457;28;20053;-70
2022/02/15 09:32:58;;;;;;;14.43;9.02;;;8.20;99.90;;;;;;5039517;28;20108;-70
2022/02/15 09:35:24;;;;;;;14.82;9.10;;;8.20;99.90;;;;;;5045539;28;20045;-70
2022/02/15 09:37:50;;;;;;;19.02;9.70;;;8.20;99.90;;;;;;5032453;28;20148;-70
2022/02/15 09:40:15;;;;;;;21.00;9.63;;;8.20;99.90;;;;;;5041112;28;20053;-69
2022/02/15 09:42:41;;;;;;;15.75;8.27;;;8.10;99.90;;;;;;5044374;28;20048;-69
2022/02/15 09:45:09;;;;;;;17.23;8.57;;;8.10;99.90;;;;;;5040993;28;20045;-70
2022/02/15 09:47:37;;;;;;;18.05;7.53;;;8.20;99.90;;;;;;5057742;28;20058;-70
2022/02/15 09:50:05;;;;;;;11.57;7.30;;;8.20;99.90;;;;;;5045315;28;20476;-70
2022/02/15 09:52:31;;;;;;;18.55;6.60;;;8.20;99.90;;;;;;5044790;28;20459;-70
2022/02/15 09:54:57;;;;;;;13.10;6.32;;;8.30;99.90;;;;;;5036297;28;20054;-70
2022/02/15 09:57:24;;;;;;;14.60;6.35;;;8.30;99.90;;;;;;5045338;28;20048;-70
2022/02/15 09:59:51;;;;;;;12.50;5.90;;;8.40;99.90;;;;;;5041766;28;20299;-70
2022/02/15 10:02:24;;;;;;;10.57;5.63;;;8.50;99.90;;;;;;5039232;28;20112;-70
2022/02/15 10:04:52;;;;;;;10.73;4.70;;;8.50;99.90;;;;;;5036602;28;20037;-70
2022/02/15 10:07:18;;;;;;;15.98;5.35;;;8.50;99.90;;;;;;5022127;28;20045;-70
2022/02/15 10:09:53;;;;;;;10.32;5.10;;;8.50;99.90;;;;;;5042162;28;20405;-70
2022/02/15 10:12:20;;;;;;;15.18;5.38;;;8.50;99.90;;;;;;5041015;28;20049;-70
2022/02/15 10:14:50;;;;;;;15.77;6.25;;;8.50;99.90;;;;;;5056040;28;20053;-70
2022/02/15 10:17:19;;;;;;;9.68;4.82;;;8.60;99.90;;;;;;5024655;28;20053;-70
2022/02/15 10:19:49;;;;;;;13.65;4.88;;;8.60;99.90;;;;;;5039123;28;20506;-70
2022/02/15 10:22:18;;;;;;;9.98;5.65;;;8.70;99.90;;;;;;5029200;28;20041;-70
2022/02/15 10:24:50;;;;;;;12.43;4.80;;;8.80;99.90;;;;;;5039227;28;20041;-70
2022/02/15 10:27:17;;;;;;;9.57;3.90;;;8.90;99.90;;;;;;5038264;28;20124;-70
2022/02/15 10:29:44;;;;;;;11.68;4.00;;;9.00;99.90;;;;;;5043340;28;20535;-70
2022/02/15 10:32:13;;;;;;;10.02;4.05;;;9.00;99.90;;;;;;5040654;28;20037;-70
2022/02/15 10:35:05;;;;;;;12.85;4.20;;;9.10;99.90;;;;;;5040906;28;20052;-70
2022/02/15 10:37:33;;;;;;;8.68;4.00;;;9.10;99.90;;;;;;5033939;28;20706;-70
2022/02/15 10:40:06;;;;;;;11.68;4.82;;;9.00;99.90;;;;;;5039193;28;20180;-70
2022/02/15 10:42:34;;;;;;;11.13;3.85;;;9.00;99.90;;;;;;5040860;28;20064;-70
2022/02/15 10:45:05;;;;;;;12.77;3.88;;;8.90;99.90;;;;;;5041814;28;20049;-70
2022/02/15 10:47:36;;;;;;;7.57;3.03;;;8.90;99.90;;;;;;5039010;28;20120;-70
2022/02/15 10:50:05;;;;;;;8.65;3.28;;;8.80;99.90;;;;;;5043954;28;20125;-70
2022/02/15 10:52:31;;;;;;;6.93;2.75;;;8.80;99.90;;;;;;5039470;28;20553;-70
2022/02/15 10:54:57;;;;;;;9.68;3.30;;;9.00;99.90;;;;;;5031043;28;20053;-70
2022/02/15 10:57:24;;;;;;;10.50;3.63;;;9.00;99.90;;;;;;5043361;28;20087;-70
2022/02/15 10:59:52;;;;;;;13.32;3.40;;;9.00;99.90;;;;;;5038211;28;20056;-69
2022/02/15 11:02:26;;;;;;;10.48;2.92;;;9.00;99.90;;;;;;5021930;28;20037;-70
2022/02/15 11:04:55;;;;;;;8.50;3.00;;;8.90;99.90;;;;;;5042667;28;20450;-70
2022/02/15 11:07:26;;;;;;;9.80;3.15;;;8.80;99.90;;;;;;5024508;28;20383;-70
2022/02/15 11:10:25;;;;;;;11.18;3.15;;;8.70;99.90;;;;;;5039061;28;20037;-70
2022/02/15 11:13:03;;;;;;;10.00;3.17;;;8.70;99.90;;;;;;5037061;28;20041;-70
2022/02/15 11:15:32;;;;;;;13.35;2.78;;;8.70;99.90;;;;;;5037929;28;20045;-70
2022/02/15 11:18:00;;;;;;;12.30;3.17;;;9.00;99.90;;;;;;5043926;28;20057;-70
2022/02/15 11:20:50;;;;;;;9.13;2.47;;;9.10;99.90;;;;;;5041362;28;20173;-70
2022/02/15 11:23:18;;;;;;;8.70;2.67;;;9.00;99.90;;;;;;5029877;28;20047;-70
2022/02/15 11:25:44;;;;;;;12.77;2.53;;;8.70;99.90;;;;;;5040817;28;20056;-70
2022/02/15 11:28:15;;;;;;;13.23;3.15;;;8.90;99.90;;;;;;5023274;28;20057;-70
2022/02/15 11:30:53;;;;;;;9.93;2.53;;;9.00;99.90;;;;;;5039278;28;20053;-70
2022/02/15 11:33:30;;;;;;;7.15;2.58;;;9.00;99.90;;;;;;5041874;28;20110;-70
2022/02/15 11:36:05;;;;;;;10.68;2.28;;;9.00;99.90;;;;;;5038584;28;20057;-71
2022/02/15 11:38:31;;;;;;;9.02;2.33;;;8.80;99.90;;;;;;5040664;28;20430;-70
2022/02/15 11:41:12;;;;;;;8.77;2.25;;;8.80;99.90;;;;;;5039597;28;20110;-71
2022/02/15 11:43:38;;;;;;;9.05;2.17;;;8.80;99.90;;;;;;5040147;28;20128;-70
2022/02/15 11:46:05;;;;;;;13.88;2.80;;;8.90;99.90;;;;;;5041636;28;20045;-70
2022/02/15 11:48:40;;;;;;;9.85;2.42;;;9.40;99.90;;;;;;5036254;28;20041;-71
2022/02/15 11:51:18;;;;;;;7.10;2.30;;;9.80;99.90;;;;;;5041131;28;20049;-71
2022/02/15 11:53:45;;;;;;;10.38;2.25;;;10.00;99.90;;;;;;5040221;28;20535;-71
2022/02/15 11:56:14;;;;;;;8.25;2.15;;;10.00;99.70;;;;;;5027864;28;20050;-70
2022/02/15 11:58:47;;;;;;;10.35;3.15;;;10.10;99.30;;;;;;5036414;28;20410;-70
2022/02/15 12:01:29;;;;;;;7.63;1.80;;;10.10;99.30;;;;;;5038169;28;20053;-70
2022/02/15 12:03:57;;;;;;;6.40;1.40;;;10.10;99.20;;;;;;5023542;28;20044;-70
2022/02/15 12:06:39;;;;;;;8.63;1.50;;;10.20;98.10;;;;;;5029374;28;20616;-70
2022/02/15 12:09:05;;;;;;;6.25;1.40;;;10.20;96.30;;;;;;5044646;28;20098;-70
2022/02/15 12:11:32;;;;;;;8.70;1.40;;;10.30;95.50;;;;;;5047009;28;20367;-70
2022/02/15 12:14:04;;;;;;;6.40;1.42;;;10.20;95.10;;;;;;5046695;28;20065;-71
2022/02/15 12:16:43;;;;;;;6.38;1.30;;;10.20;95.30;;;;;;5028627;28;20045;-70
2022/02/15 12:19:09;;;;;;;5.05;1.27;;;10.10;95.60;;;;;;5046010;28;20029;-71
2022/02/15 12:21:39;;;;;;;6.40;1.60;;;10.00;95.40;;;;;;5047286;28;20049;-70
2022/02/15 12:24:05;;;;;;;4.38;1.02;;;10.00;94.10;;;;;;5051000;28;20045;-70
2022/02/15 12:26:31;;;;;;;6.38;1.13;;;9.90;94.30;;;;;;5029965;28;20041;-70
2022/02/15 12:28:57;;;;;;;3.42;0.80;;;9.90;93.70;;;;;;5050892;28;20040;-70
2022/02/15 12:31:24;;;;;;;4.40;1.08;;;9.90;93.20;;;;;;5048830;28;20401;-71
2022/02/15 12:33:50;;;;;;;4.75;1.10;;;9.80;92.60;;;;;;5044961;28;20110;-70
2022/02/15 12:36:15;;;;;;;4.32;0.65;;;9.80;92.30;;;;;;5045620;28;20044;-70
2022/02/15 12:38:41;;;;;;;9.32;1.15;;;9.80;92.50;;;;;;5042200;28;20140;-70
2022/02/15 12:41:15;;;;;;;6.45;1.23;;;9.80;92.60;;;;;;5045929;28;20082;-70
2022/02/15 12:43:40;;;;;;;4.50;1.02;;;9.80;92.20;;;;;;5045856;28;20500;-70
2022/02/15 12:46:06;;;;;;;6.18;0.88;;;9.90;91.90;;;;;;5042040;28;20057;-70
2022/02/15 12:48:31;;;;;;;5.75;1.10;;;9.90;91.10;;;;;;5031008;28;20478;-70
2022/02/15 12:50:57;;;;;;;5.57;1.08;;;9.90;91.50;;;;;;5039529;28;20460;-70
2022/02/15 12:53:25;;;;;;;7.80;1.30;;;9.70;91.80;;;;;;5046563;28;20072;-70
2022/02/15 12:55:52;;;;;;;3.28;0.65;;;9.80;91.20;;;;;;5028421;28;20049;-70